Time;durP1;ratioP1;P1;durP2;ratioP2;P2;SDS_P1;SDS_P2;PMS_P1;PMS_P2;Temp;Humidity;BMP_temperature;BMP_pressure;BME280_temperature;BME280_humidity;BME280_pressure;Samples;Min_cycle;Max_cycle;Signal;HPM_P1;HPM_P2
2023/10/07 00:01:24;;;;;;;3.90;3.60;;;;;;;14.40;69.97;95780.22;5073081;28;20904;-79
2023/10/07 00:03:53;;;;;;;6.33;4.50;;;;;;;14.36;69.96;95770.91;5073960;28;20476;-79
2023/10/07 00:06:25;;;;;;;5.77;3.30;;;;;;;14.34;70.29;95770.19;5073726;28;20436;-79
2023/10/07 00:08:52;;;;;;;5.47;3.90;;;;;;;14.31;70.03;95758.09;5073823;28;20544;-79
2023/10/07 00:11:19;;;;;;;6.43;4.00;;;;;;;14.25;70.16;95763.91;5073473;28;20498;-78
2023/10/07 00:13:48;;;;;;;4.97;4.10;;;;;;;14.20;70.27;95760.84;5072625;28;20969;-78
2023/10/07 00:16:18;;;;;;;5.30;4.27;;;;;;;14.18;70.39;95763.59;5073756;28;20486;-79
2023/10/07 00:18:48;;;;;;;7.73;4.57;;;;;;;14.18;70.81;95766.25;5073599;28;20443;-79
2023/10/07 00:21:24;;;;;;;5.33;4.50;;;;;;;14.15;70.51;95758.56;5073684;28;20443;-79
2023/10/07 00:23:52;;;;;;;4.20;3.50;;;;;;;14.12;70.88;95753.53;5073185;28;20439;-78
2023/10/07 00:26:19;;;;;;;7.10;4.43;;;;;;;14.14;70.64;95750.78;5073218;28;20454;-78
2023/10/07 00:28:54;;;;;;;5.50;3.60;;;;;;;14.11;70.65;95757.16;5073690;28;20450;-79
2023/10/07 00:31:27;;;;;;;4.67;4.27;;;;;;;14.05;71.01;95746.28;5073888;28;20479;-79
2023/10/07 00:34:02;;;;;;;4.27;3.87;;;;;;;14.01;71.13;95747.53;5073208;28;20526;-79
2023/10/07 00:36:41;;;;;;;7.23;4.30;;;;;;;14.01;71.32;95739.59;5072900;28;20523;-78
2023/10/07 00:39:09;;;;;;;3.90;3.60;;;;;;;14.00;71.35;95748.47;5073257;28;20445;-79
2023/10/07 00:41:39;;;;;;;4.50;4.10;;;;;;;13.94;71.63;95732.22;5073277;28;20444;-79
2023/10/07 00:44:17;;;;;;;6.03;4.33;;;;;;;13.97;71.67;95733.75;5073228;28;20452;-79
2023/10/07 00:46:47;;;;;;;6.00;3.80;;;;;;;14.03;71.20;95735.03;5073137;28;20491;-79
2023/10/07 00:49:22;;;;;;;6.20;4.70;;;;;;;14.01;71.11;95740.44;5072944;28;20893;-79
2023/10/07 00:51:53;;;;;;;5.67;4.43;;;;;;;14.02;71.09;95726.28;5073069;28;20937;-79
2023/10/07 00:54:30;;;;;;;6.40;4.43;;;;;;;13.95;71.34;95725.13;5072983;28;20530;-78
2023/10/07 00:57:08;;;;;;;4.57;4.07;;;;;;;13.93;71.50;95722.63;5072866;28;20445;-79
2023/10/07 00:59:38;;;;;;;6.40;4.60;;;;;;;13.92;71.49;95722.75;5072512;28;20440;-79
2023/10/07 01:02:14;;;;;;;6.73;4.90;;;;;;;13.91;71.62;95718.44;5072460;28;20449;-78
2023/10/07 01:04:42;;;;;;;4.20;3.80;;;;;;;13.89;71.56;95723.03;5072536;28;20451;-79
2023/10/07 01:07:17;;;;;;;6.70;4.10;;;;;;;13.83;71.78;95716.44;5072764;28;20452;-79
2023/10/07 01:09:58;;;;;;;6.10;4.27;;;;;;;13.80;71.99;95716.69;5072576;28;20444;-79
2023/10/07 01:12:25;;;;;;;7.03;4.20;;;;;;;13.83;71.88;95716.44;5072515;28;20493;-78
2023/10/07 01:14:53;;;;;;;6.90;4.87;;;;;;;13.79;72.12;95716.81;5072502;28;20440;-79
2023/10/07 01:17:30;;;;;;;7.23;4.77;;;;;;;13.77;71.79;95716.97;5072451;28;20542;-79
2023/10/07 01:19:58;;;;;;;7.10;4.43;;;;;;;13.71;71.96;95714.84;5072558;28;20468;-78
2023/10/07 01:22:35;;;;;;;5.00;4.10;;;;;;;13.71;72.66;95721.91;5072122;28;20452;-78
2023/10/07 01:25:06;;;;;;;9.83;4.37;;;;;;;13.74;72.10;95721.66;5072122;28;20472;-79
2023/10/07 01:27:41;;;;;;;5.67;4.60;;;;;;;13.72;72.80;95718.31;5072605;28;20795;-79
2023/10/07 01:30:16;;;;;;;9.63;3.97;;;;;;;13.73;72.28;95720.81;5072477;28;20535;-79
2023/10/07 01:32:49;;;;;;;5.90;4.67;;;;;;;13.72;72.38;95718.31;5038952;28;20534;-78
2023/10/07 01:35:25;;;;;;;5.93;4.20;;;;;;;13.70;72.47;95720.25;5071915;28;21025;-79
2023/10/07 01:37:59;;;;;;;5.23;4.00;;;;;;;13.71;72.49;95732.47;5072266;28;20443;-78
2023/10/07 01:40:32;;;;;;;7.40;4.17;;;;;;;13.73;72.31;95726.09;5072411;28;20439;-78
2023/10/07 01:43:02;;;;;;;7.40;4.17;;;;;;;13.73;72.67;95727.91;5072440;28;20448;-78
2023/10/07 01:45:34;;;;;;;12.93;4.90;;;;;;;13.70;72.91;95730.81;5071855;28;20565;-78
2023/10/07 01:48:07;;;;;;;7.27;4.33;;;;;;;13.66;73.26;95734.66;5038369;28;20939;-79
2023/10/07 01:50:38;;;;;;;4.50;4.10;;;;;;;13.61;73.54;95724.50;5071975;28;20445;-79
2023/10/07 01:53:07;;;;;;;5.57;4.77;;;;;;;13.50;74.37;95724.53;5053015;28;20450;-79
2023/10/07 01:55:36;;;;;;;6.93;5.27;;;;;;;13.44;74.46;95720.63;5071822;28;20447;-78
2023/10/07 01:58:04;;;;;;;5.83;5.23;;;;;;;13.21;74.96;95725.13;5071860;28;20482;-79
2023/10/07 02:00:42;;;;;;;9.93;5.70;;;;;;;12.76;76.16;95728.84;5071624;28;20466;-79
2023/10/07 02:03:13;;;;;;;10.10;4.97;;;;;;;12.46;78.62;95730.31;5051993;28;20443;-79
2023/10/07 02:05:41;;;;;;;7.00;5.60;;;;;;;12.49;78.59;95726.59;5052100;28;20451;-78
2023/10/07 02:08:14;;;;;;;7.33;5.20;;;;;;;12.51;78.39;95719.41;5051671;28;20444;-79
2023/10/07 02:10:42;;;;;;;6.03;5.40;;;;;;;12.56;78.99;95712.00;5051346;28;20447;-78
2023/10/07 02:13:13;;;;;;;7.53;5.10;;;;;;;12.61;77.67;95713.28;5051603;28;21029;-79
2023/10/07 02:15:42;;;;;;;9.23;5.87;;;;;;;12.66;77.63;95716.38;5051697;28;20478;-78
2023/10/07 02:18:15;;;;;;;8.23;6.73;;;;;;;12.74;78.15;95714.97;5051790;28;20477;-79
2023/10/07 02:20:44;;;;;;;10.93;5.80;;;;;;;12.79;77.16;95703.09;5018509;28;20459;-78
2023/10/07 02:23:15;;;;;;;8.27;5.30;;;;;;;12.80;77.43;95694.22;5051354;28;20446;-78
2023/10/07 02:25:42;;;;;;;7.90;5.27;;;;;;;12.78;77.20;95706.69;5051299;28;20439;-78
2023/10/07 02:28:10;;;;;;;6.73;5.17;;;;;;;12.76;77.18;95707.78;5016788;28;20530;-79
2023/10/07 02:30:49;;;;;;;6.70;5.00;;;;;;;12.77;77.37;95706.81;5052247;28;20448;-80
2023/10/07 02:33:16;;;;;;;8.27;5.43;;;;;;;12.82;76.63;95713.38;5054229;28;20467;-79
2023/10/07 02:35:46;;;;;;;7.00;5.20;;;;;;;12.80;76.32;95715.31;5053263;28;20936;-80
2023/10/07 02:38:24;;;;;;;6.43;5.40;;;;;;;12.57;76.97;95714.50;5055795;28;20442;-79
2023/10/07 02:40:52;;;;;;;6.93;5.20;;;;;;;12.37;77.96;95710.81;5055276;28;21009;-79
2023/10/07 02:43:19;;;;;;;11.20;6.57;;;;;;;12.43;77.76;95711.28;5055226;28;20443;-79
2023/10/07 02:45:45;;;;;;;10.00;7.53;;;;;;;12.36;78.89;95719.66;5055423;28;20960;-78
2023/10/07 02:48:12;;;;;;;9.10;6.90;;;;;;;12.18;79.75;95721.13;5019704;28;20443;-79
2023/10/07 02:50:42;;;;;;;7.67;6.17;;;;;;;12.05;79.67;95720.38;5055134;28;20457;-79
2023/10/07 02:53:14;;;;;;;9.60;5.90;;;;;;;11.97;79.61;95714.88;5054895;28;20455;-79
2023/10/07 02:55:54;;;;;;;19.00;6.70;;;;;;;12.00;80.72;95712.00;5054919;28;20445;-79
2023/10/07 02:58:27;;;;;;;6.80;6.10;;;;;;;12.03;81.03;95703.88;5054810;28;20528;-78
2023/10/07 03:00:59;;;;;;;13.17;7.40;;;;;;;12.13;80.81;95709.25;5056597;28;20443;-79
2023/10/07 03:03:38;;;;;;;10.73;6.50;;;;;;;12.13;80.65;95714.50;5074544;28;20446;-78
2023/10/07 03:06:08;;;;;;;9.03;5.90;;;;;;;12.21;80.80;95718.25;5075009;28;20444;-79
2023/10/07 03:08:47;;;;;;;9.37;6.90;;;;;;;12.31;79.50;95707.81;5074782;28;20503;-79
2023/10/07 03:11:21;;;;;;;8.03;6.90;;;;;;;12.39;80.15;95710.69;5075005;28;20480;-78
2023/10/07 03:13:49;;;;;;;13.10;7.00;;;;;;;12.49;79.99;95713.44;5074653;28;20444;-79
2023/10/07 03:19:06;;;;;;;8.63;6.03;;;;;;;12.63;79.25;95718.44;5032152;28;20439;-79
2023/10/07 03:21:55;;;;;;;7.60;6.90;;;;;;;12.69;78.32;95723.22;5032198;28;20454;-80
2023/10/07 03:24:41;;;;;;;7.17;6.10;;;;;;;12.67;78.36;95714.59;5032050;28;20496;-78
2023/10/07 03:27:11;;;;;;;15.33;6.43;;;;;;;12.65;79.45;95717.34;5032096;28;20489;-79
2023/10/07 03:29:41;;;;;;;8.77;6.30;;;;;;;12.74;78.50;95712.34;5032063;28;20446;-78
2023/10/07 03:32:13;;;;;;;7.97;6.13;;;;;;;12.81;78.98;95716.13;5032020;28;20494;-80
2023/10/07 03:34:45;;;;;;;6.60;5.90;;;;;;;12.81;79.07;95716.13;5031633;28;20513;-80
2023/10/07 03:37:14;;;;;;;6.90;6.20;;;;;;;12.81;79.24;95719.59;5031911;28;20453;-80
2023/10/07 03:39:55;;;;;;;9.30;6.40;;;;;;;12.85;78.59;95723.66;5032111;28;20885;-81
2023/10/07 03:42:24;;;;;;;7.83;5.80;;;;;;;12.85;77.42;95722.84;5031821;28;20444;-80
2023/10/07 03:44:50;;;;;;;10.50;6.30;;;;;;;12.81;77.79;95718.78;4982506;28;20467;-80
2023/10/07 03:47:17;;;;;;;6.73;5.80;;;;;;;12.81;77.63;95719.59;5031767;28;20823;-80
2023/10/07 03:49:52;;;;;;;11.03;6.57;;;;;;;12.78;78.07;95722.50;5031801;28;20487;-81
2023/10/07 03:52:21;;;;;;;8.87;5.30;;;;;;;12.73;79.14;95719.41;5031647;28;20494;-80
2023/10/07 03:54:48;;;;;;;8.30;6.60;;;;;;;12.78;78.37;95726.94;5031311;28;20450;-80
2023/10/07 03:57:18;;;;;;;8.27;6.80;;;;;;;12.79;78.20;95724.16;5069889;28;20439;-80
2023/10/07 03:59:47;;;;;;;7.90;5.93;;;;;;;12.79;78.51;95724.16;5074111;28;20534;-81
2023/10/07 04:02:31;;;;;;;7.23;6.37;;;;;;;12.82;78.93;95725.72;5038352;28;20806;-80
2023/10/07 04:05:09;;;;;;;10.33;5.30;;;;;;;12.89;78.74;95730.34;5043411;28;21095;-80
2023/10/07 04:07:37;;;;;;;7.00;5.23;;;;;;;12.97;78.79;95725.28;5055163;28;20439;-80
2023/10/07 04:10:13;;;;;;;9.40;6.23;;;;;;;13.02;79.02;95731.06;5074286;28;20443;-83
2023/10/07 04:12:40;;;;;;;8.37;5.40;;;;;;;13.06;78.86;95725.53;5073877;28;20501;-82
2023/10/07 04:15:12;;;;;;;7.93;4.70;;;;;;;13.09;78.47;95722.66;5073380;28;20981;-82
2023/10/07 04:17:39;;;;;;;6.97;5.97;;;;;;;13.08;78.70;95728.88;5073336;28;20440;-82
2023/10/07 04:20:18;;;;;;;7.93;5.63;;;;;;;13.06;78.41;95734.28;5038381;28;20968;-80
2023/10/07 04:22:45;;;;;;;9.37;5.60;;;;;;;13.08;78.17;95728.88;5070700;28;20834;-80
2023/10/07 04:25:17;;;;;;;7.77;4.93;;;;;;;13.11;78.43;95718.94;5054276;28;20451;-80
2023/10/07 04:27:44;;;;;;;7.83;5.50;;;;;;;13.14;78.53;95717.84;5063724;28;20532;-80
2023/10/07 04:30:16;;;;;;;10.73;5.50;;;;;;;13.15;78.04;95714.25;5073098;28;20454;-81
2023/10/07 04:32:52;;;;;;;8.27;5.03;;;;;;;13.14;77.14;95712.56;5071314;28;20822;-81
2023/10/07 04:35:21;;;;;;;10.93;5.87;;;;;;;13.15;77.12;95716.88;5073345;28;20458;-81
2023/10/07 04:37:47;;;;;;;6.03;4.60;;;;;;;13.12;76.57;95714.50;5037712;28;20970;-80
2023/10/07 04:43:25;;;;;;;9.70;6.33;;;;;;;13.07;77.03;95711.41;5073366;28;20200;-80
2023/10/07 04:45:53;;;;;;;7.97;5.47;;;;;;;13.02;76.58;95714.41;5064523;28;20520;-79
2023/10/07 04:48:40;;;;;;;8.27;5.40;;;;;;;12.98;76.66;95713.78;5053277;28;20532;-78
2023/10/07 04:51:07;;;;;;;9.43;5.50;;;;;;;12.97;76.84;95721.81;5052701;28;20470;-79
2023/10/07 04:53:39;;;;;;;5.97;5.37;;;;;;;12.94;77.58;95728.19;5052845;28;20486;-79
2023/10/07 04:56:10;;;;;;;6.17;5.57;;;;;;;12.92;77.92;95727.47;5070382;28;20440;-79
2023/10/07 04:58:39;;;;;;;8.03;5.33;;;;;;;13.02;77.78;95723.16;5071997;28;20945;-79
2023/10/07 05:01:22;;;;;;;10.77;4.90;;;;;;;13.09;77.36;95726.13;5072264;28;21012;-80
2023/10/07 05:03:55;;;;;;;6.00;5.40;;;;;;;13.11;77.11;95733.91;5072671;28;20439;-79
2023/10/07 05:06:21;;;;;;;16.37;5.17;;;;;;;13.21;77.95;95737.47;5073102;28;20560;-78
2023/10/07 05:08:48;;;;;;;8.43;5.37;;;;;;;13.29;77.45;95735.03;5073311;28;20471;-79
2023/10/07 05:11:17;;;;;;;13.93;6.73;;;;;;;13.41;76.67;95735.84;5073080;28;20517;-80
2023/10/07 05:13:46;;;;;;;7.03;5.47;;;;;;;13.60;77.14;95742.13;5073260;28;20454;-79
2023/10/07 05:16:14;;;;;;;12.20;6.10;;;;;;;14.04;76.33;95739.34;5073032;28;20547;-80
2023/10/07 05:18:41;;;;;;;10.13;7.07;;;;;;;14.51;72.74;95753.78;5054414;28;20441;-80
2023/10/07 05:21:08;;;;;;;13.47;8.23;;;;;;;14.84;71.21;95750.84;5073277;28;20452;-80
2023/10/07 05:23:36;;;;;;;11.80;8.43;;;;;;;15.46;70.36;95749.69;5073043;28;20535;-78
2023/10/07 05:26:08;;;;;;;15.20;7.27;;;;;;;16.01;67.63;95747.31;5073088;28;20437;-80
2023/10/07 05:28:36;;;;;;;15.40;7.73;;;;;;;16.71;66.64;95750.44;5072683;28;20537;-80
2023/10/07 05:31:04;;;;;;;9.27;5.97;;;;;;;17.31;64.07;95759.59;5072784;28;20454;-79
2023/10/07 05:33:35;;;;;;;11.77;7.17;;;;;;;17.75;67.76;95762.38;5072524;28;20481;-84
2023/10/07 05:36:08;;;;;;;21.53;8.30;;;;;;;17.84;66.93;95766.78;5072803;28;21015;-81
2023/10/07 05:38:35;;;;;;;15.30;7.00;;;;;;;18.12;62.71;95769.31;5072974;28;20452;-85
2023/10/07 05:41:03;;;;;;;13.07;7.73;;;;;;;18.46;66.71;95769.38;5038088;28;20439;-80
2023/10/07 05:43:31;;;;;;;13.33;6.43;;;;;;;18.85;67.14;95767.16;5072820;28;20494;-81
2023/10/07 05:45:58;;;;;;;12.60;6.60;;;;;;;19.17;59.42;95774.44;5072863;28;20918;-78
2023/10/07 05:48:25;;;;;;;13.40;6.53;;;;;;;19.48;59.91;95772.84;5065197;28;20489;-80
2023/10/07 05:50:55;;;;;;;8.13;6.80;;;;;;;19.21;55.87;95777.59;5060001;28;20445;-82
2023/10/07 05:53:21;;;;;;;9.23;6.90;;;;;;;18.88;57.79;95774.81;5059388;28;20985;-75
2023/10/07 05:55:48;;;;;;;9.60;6.10;;;;;;;18.76;57.93;95774.22;5072220;28;20455;-77
2023/10/07 05:58:15;;;;;;;16.17;7.83;;;;;;;18.58;58.15;95766.31;5073099;28;20443;-81
2023/10/07 06:00:42;;;;;;;14.50;8.17;;;;;;;18.65;58.90;95771.88;5054036;28;20455;-82
2023/10/07 06:03:11;;;;;;;13.80;9.00;;;;;;;18.67;60.29;95777.03;5070747;28;20462;-82
2023/10/07 06:05:39;;;;;;;11.30;8.10;;;;;;;18.83;58.51;95783.25;5038041;28;20458;-82
2023/10/07 06:08:10;;;;;;;10.00;7.80;;;;;;;18.46;57.99;95787.97;5069969;28;20467;-83
2023/10/07 06:10:38;;;;;;;19.40;11.77;;;;;;;18.60;58.58;95783.94;5072023;28;20525;-82
2023/10/07 06:13:08;;;;;;;12.33;8.33;;;;;;;17.97;59.04;95782.34;5075739;28;21010;-83
2023/10/07 06:15:35;;;;;;;9.67;7.17;;;;;;;17.66;61.10;95773.91;5075813;28;20478;-82
2023/10/07 06:18:04;;;;;;;10.67;7.17;;;;;;;18.03;61.30;95771.09;5076174;28;20437;-82
2023/10/07 06:20:37;;;;;;;17.70;7.63;;;;;;;18.27;60.13;95775.75;5075903;28;20952;-82
2023/10/07 06:23:13;;;;;;;15.40;8.53;;;;;;;18.46;60.30;95772.88;5076203;28;20444;-82
2023/10/07 06:25:41;;;;;;;17.00;9.30;;;;;;;18.53;58.40;95771.28;5075998;28;20456;-82
2023/10/07 06:28:11;;;;;;;18.00;8.60;;;;;;;18.90;59.34;95772.00;5076091;28;20822;-83
2023/10/07 06:30:42;;;;;;;13.13;8.27;;;;;;;19.22;57.10;95773.94;5075668;28;20534;-82
2023/10/07 06:33:12;;;;;;;16.77;8.97;;;;;;;19.54;58.01;95768.72;5075273;28;20522;-83
2023/10/07 06:35:39;;;;;;;9.63;8.20;;;;;;;19.64;55.19;95772.06;5075755;28;20446;-83
2023/10/07 06:38:07;;;;;;;12.00;8.53;;;;;;;19.67;59.19;95771.75;5075608;28;20438;-82
2023/10/07 06:40:35;;;;;;;12.10;8.10;;;;;;;19.98;56.08;95782.59;5075651;28;20439;-82
2023/10/07 06:43:02;;;;;;;16.10;8.70;;;;;;;20.19;53.76;95779.41;5075286;28;20444;-82
2023/10/07 06:45:35;;;;;;;10.57;8.20;;;;;;;20.09;53.50;95774.28;5075307;28;20480;-83
2023/10/07 06:48:05;;;;;;;10.37;8.10;;;;;;;20.27;55.39;95781.28;5075460;28;20788;-82
2023/10/07 06:50:33;;;;;;;9.50;8.03;;;;;;;20.54;54.19;95780.09;5040720;28;20554;-83
2023/10/07 06:53:00;;;;;;;17.23;8.63;;;;;;;20.56;52.60;95783.44;5075766;28;20978;-82
2023/10/07 06:55:35;;;;;;;14.70;8.27;;;;;;;20.55;52.89;95776.44;5075598;28;20448;-83
2023/10/07 06:58:04;;;;;;;11.30;8.73;;;;;;;19.95;53.59;95788.28;5075527;28;20444;-83
2023/10/07 07:00:47;;;;;;;14.90;9.03;;;;;;;19.64;55.12;95774.72;5075687;28;20458;-83
2023/10/07 07:03:14;;;;;;;12.17;8.63;;;;;;;19.56;55.16;95781.88;5075407;28;20477;-83
2023/10/07 07:05:41;;;;;;;9.63;8.07;;;;;;;19.64;55.19;95772.06;5039753;28;20824;-83
2023/10/07 07:08:10;;;;;;;10.30;7.30;;;;;;;19.91;56.76;95770.09;5075251;28;20876;-83
2023/10/07 07:10:40;;;;;;;12.03;8.30;;;;;;;19.85;55.57;95771.59;5074800;28;20456;-83
2023/10/07 07:13:13;;;;;;;8.90;7.73;;;;;;;20.03;55.45;95761.63;5075090;28;20491;-82
2023/10/07 07:15:41;;;;;;;19.97;8.77;;;;;;;20.29;55.04;95764.09;5075259;28;20476;-83
2023/10/07 07:18:19;;;;;;;8.87;7.33;;;;;;;20.26;55.27;95759.13;5075203;28;20480;-83
2023/10/07 07:20:49;;;;;;;9.30;8.10;;;;;;;20.21;54.96;95760.59;5074733;28;20871;-83
2023/10/07 07:23:21;;;;;;;10.13;7.90;;;;;;;20.14;55.39;95760.44;5074361;28;20454;-82
2023/10/07 07:26:06;;;;;;;11.10;8.17;;;;;;;20.26;54.59;95760.94;5075202;28;20455;-83
2023/10/07 07:28:34;;;;;;;12.13;8.60;;;;;;;20.46;54.57;95753.44;5075325;28;20498;-82
2023/10/07 07:31:02;;;;;;;9.53;7.40;;;;;;;20.47;54.14;95768.44;5074784;28;20452;-83
2023/10/07 07:33:34;;;;;;;15.87;8.33;;;;;;;20.31;54.41;95766.59;5039339;28;20583;-82
2023/10/07 07:36:07;;;;;;;14.13;7.57;;;;;;;20.38;54.87;95757.75;5074405;28;20520;-82
2023/10/07 07:38:43;;;;;;;12.27;7.43;;;;;;;20.25;54.36;95769.94;5074586;28;20494;-83
2023/10/07 07:41:26;;;;;;;11.97;8.10;;;;;;;19.59;55.99;95766.41;5074644;28;21030;-81
2023/10/07 07:43:58;;;;;;;11.23;8.40;;;;;;;19.46;55.86;95763.38;5074772;28;20483;-82
2023/10/07 07:46:30;;;;;;;13.07;8.10;;;;;;;19.26;56.89;95756.66;5074889;28;20503;-82
2023/10/07 07:49:06;;;;;;;12.17;8.17;;;;;;;19.14;57.35;95751.63;5079886;28;20448;-82
2023/10/07 07:51:37;;;;;;;10.13;8.13;;;;;;;19.52;57.45;95753.88;5089864;28;20439;-80
2023/10/07 07:54:06;;;;;;;10.27;8.33;;;;;;;19.73;56.98;95752.44;5089782;28;20538;-82
2023/10/07 07:56:35;;;;;;;10.07;7.53;;;;;;;20.04;56.63;95749.13;5074750;28;20437;-82
2023/10/07 07:59:13;;;;;;;11.10;7.73;;;;;;;20.35;55.21;95741.28;5074406;28;20447;-82
2023/10/07 08:01:44;;;;;;;10.67;8.10;;;;;;;20.13;54.66;95747.28;5074096;28;20491;-82
2023/10/07 08:04:17;;;;;;;12.90;8.10;;;;;;;19.73;55.70;95747.13;5073850;28;20488;-82
2023/10/07 08:06:45;;;;;;;10.50;8.20;;;;;;;19.85;55.74;95742.28;5073760;28;20864;-84
2023/10/07 08:09:12;;;;;;;10.03;8.20;;;;;;;19.96;55.42;95741.97;5073801;28;20467;-81
2023/10/07 08:11:40;;;;;;;12.10;8.23;;;;;;;20.02;56.26;95743.13;5073722;28;20450;-83
2023/10/07 08:14:10;;;;;;;9.93;8.10;;;;;;;19.83;55.39;95746.97;5038269;28;20516;-83
2023/10/07 08:16:50;;;;;;;11.97;8.00;;;;;;;19.78;55.87;95744.78;5073170;28;20991;-82
2023/10/07 08:19:20;;;;;;;9.27;7.50;;;;;;;19.84;57.16;95743.28;5073826;28;20441;-83
2023/10/07 08:21:51;;;;;;;10.57;7.60;;;;;;;19.99;55.69;95738.97;5074129;28;20499;-82
2023/10/07 08:24:19;;;;;;;19.83;8.77;;;;;;;20.13;54.81;95734.78;5074022;28;20779;-82
2023/10/07 08:26:49;;;;;;;9.90;8.57;;;;;;;19.85;54.94;95734.31;5073600;28;20454;-81
2023/10/07 08:29:31;;;;;;;12.40;8.23;;;;;;;19.78;55.54;95744.78;5073369;28;21004;-82
2023/10/07 08:32:00;;;;;;;11.00;8.00;;;;;;;19.90;55.58;95731.13;5073188;28;20970;-82
2023/10/07 08:34:33;;;;;;;14.50;8.90;;;;;;;19.83;55.52;95730.16;5072584;28;20485;-81
2023/10/07 08:37:02;;;;;;;22.27;8.63;;;;;;;19.86;54.88;95733.31;5073257;28;20542;-82
2023/10/07 08:39:44;;;;;;;13.30;9.40;;;;;;;19.84;55.27;95726.47;5073418;28;20535;-81
2023/10/07 08:42:17;;;;;;;10.80;8.37;;;;;;;19.87;55.27;95715.50;5042142;28;20444;-81
2023/10/07 08:44:51;;;;;;;11.40;9.03;;;;;;;20.04;54.85;95706.50;5073299;28;20435;-81
2023/10/07 08:47:20;;;;;;;8.93;7.30;;;;;;;20.18;54.51;95718.28;5072992;28;20526;-81
2023/10/07 08:49:48;;;;;;;12.17;8.53;;;;;;;20.00;55.12;95716.66;5072836;28;20438;-81
2023/10/07 08:52:18;;;;;;;18.00;9.83;;;;;;;19.94;54.43;95705.81;5073014;28;20534;-81
2023/10/07 08:54:47;;;;;;;13.37;8.10;;;;;;;20.23;55.35;95710.63;5072787;28;20484;-81
2023/10/07 08:57:22;;;;;;;17.30;9.60;;;;;;;20.40;54.51;95702.47;5072668;28;20800;-80
2023/10/07 08:59:52;;;;;;;12.70;8.83;;;;;;;20.57;53.78;95702.44;5053833;28;20443;-81
2023/10/07 09:02:27;;;;;;;10.33;8.20;;;;;;;20.65;53.86;95697.06;5038444;28;20479;-81
2023/10/07 09:04:55;;;;;;;13.03;8.40;;;;;;;20.92;55.41;95691.28;5072623;28;20479;-81
2023/10/07 09:07:23;;;;;;;11.67;6.70;;;;;;;20.84;52.18;95693.16;5072574;28;20561;-81
2023/10/07 09:09:52;;;;;;;27.67;8.30;;;;;;;20.94;51.06;95678.59;5072897;28;20446;-81
2023/10/07 09:12:30;;;;;;;10.30;7.60;;;;;;;21.01;52.01;95678.72;5072678;28;20472;-81
2023/10/07 09:15:07;;;;;;;12.10;8.83;;;;;;;20.97;52.81;95690.75;5072256;28;20842;-81
2023/10/07 09:17:35;;;;;;;11.67;8.07;;;;;;;20.98;52.54;95677.22;5072801;28;20464;-81
2023/10/07 09:20:03;;;;;;;12.00;7.83;;;;;;;20.90;51.42;95687.94;5072804;28;20453;-80
2023/10/07 09:22:35;;;;;;;7.63;6.90;;;;;;;20.94;51.66;95683.94;5072410;28;20454;-81
2023/10/07 09:25:16;;;;;;;9.77;7.40;;;;;;;20.90;50.92;95685.28;5072800;28;20452;-81
2023/10/07 09:27:49;;;;;;;10.40;7.43;;;;;;;20.98;52.52;95682.56;5072416;28;20492;-81
2023/10/07 09:30:35;;;;;;;17.60;7.87;;;;;;;20.99;51.63;95683.41;5072237;28;20465;-81
2023/10/07 09:33:06;;;;;;;13.30;7.20;;;;;;;20.79;51.24;95674.97;5072186;28;20492;-80
2023/10/07 09:35:35;;;;;;;10.10;7.67;;;;;;;20.57;52.27;95681.09;5072481;28;20455;-81
2023/10/07 09:38:08;;;;;;;11.53;6.97;;;;;;;20.75;54.55;95673.66;5072253;28;20945;-81
2023/10/07 09:43:33;;;;;;;14.33;8.40;;;;;;;21.03;53.20;95668.69;5030022;28;20517;-82
2023/10/07 09:45:58;;;;;;;13.90;8.17;;;;;;;20.87;50.72;95671.47;4996341;28;20468;-80
2023/10/07 09:48:30;;;;;;;10.77;8.30;;;;;;;21.00;51.37;95672.56;5029776;28;20954;-81
2023/10/07 09:50:58;;;;;;;12.33;8.03;;;;;;;21.11;51.43;95663.34;5029539;28;20713;-82
2023/10/07 09:53:38;;;;;;;10.50;7.77;;;;;;;21.08;49.99;95666.31;5029535;28;20510;-81
2023/10/07 09:56:21;;;;;;;10.87;7.87;;;;;;;21.05;50.42;95661.34;5029812;28;20447;-81
2023/10/07 09:59:07;;;;;;;9.33;7.70;;;;;;;21.06;50.54;95651.50;5029628;28;20445;-81
2023/10/07 10:01:43;;;;;;;8.63;7.27;;;;;;;21.02;50.99;95654.53;5029657;28;20446;-81
2023/10/07 10:04:32;;;;;;;11.77;8.20;;;;;;;21.08;49.97;95644.16;5029805;28;20492;-81
2023/10/07 10:07:30;;;;;;;9.53;7.10;;;;;;;21.08;50.34;95646.81;5029731;28;20517;-81
2023/10/07 10:10:07;;;;;;;12.20;7.87;;;;;;;21.15;50.51;95640.63;4981227;28;20449;-81
2023/10/07 10:12:53;;;;;;;15.53;7.00;;;;;;;21.20;49.47;95635.56;5029476;28;20451;-81
2023/10/07 10:18:38;;;;;;;11.83;7.43;;;;;;;21.15;49.16;95621.09;5021148;28;20435;-81
2023/10/07 10:21:09;;;;;;;9.33;7.43;;;;;;;21.20;52.11;95626.75;5029355;28;20522;-81
2023/10/07 10:23:37;;;;;;;12.17;8.40;;;;;;;21.22;49.08;95611.38;5029529;28;20934;-80
2023/10/07 10:26:14;;;;;;;11.17;7.60;;;;;;;21.29;49.31;95599.00;5029565;28;20450;-81
2023/10/07 10:28:41;;;;;;;11.53;7.17;;;;;;;21.37;49.23;95603.44;5029808;28;20445;-81
2023/10/07 10:31:19;;;;;;;14.13;7.27;;;;;;;21.32;48.90;95590.63;5029539;28;20510;-81
2023/10/07 10:33:49;;;;;;;8.07;7.07;;;;;;;21.34;48.85;95586.75;5029491;28;20923;-81
2023/10/07 10:36:21;;;;;;;13.13;7.07;;;;;;;21.36;48.92;95591.09;4996462;28;20437;-81
2023/10/07 10:38:48;;;;;;;16.77;7.23;;;;;;;21.30;49.08;95581.97;5029382;28;20451;-82
2023/10/07 10:41:15;;;;;;;8.77;7.87;;;;;;;20.83;49.00;95574.94;5029250;28;20445;-81
2023/10/07 10:43:42;;;;;;;17.20;7.30;;;;;;;20.98;48.67;95570.50;5029687;28;20533;-81
2023/10/07 10:46:09;;;;;;;8.07;7.17;;;;;;;21.01;49.10;95566.63;5029535;28;20540;-81
2023/10/07 10:48:40;;;;;;;9.90;8.33;;;;;;;21.09;48.50;95563.91;5029456;28;20940;-81
2023/10/07 10:51:07;;;;;;;13.93;7.40;;;;;;;21.20;48.38;95549.31;5029340;28;20682;-81
2023/10/07 10:53:34;;;;;;;12.37;8.30;;;;;;;21.29;48.31;95548.28;5039410;28;20489;-81
2023/10/07 10:56:02;;;;;;;10.60;8.13;;;;;;;21.42;48.33;95547.69;5071607;28;20454;-81
2023/10/07 10:58:30;;;;;;;13.00;7.40;;;;;;;21.49;49.00;95544.09;5074196;28;20872;-81
2023/10/07 11:00:57;;;;;;;10.10;6.97;;;;;;;21.55;47.82;95540.69;5075319;28;20930;-81
2023/10/07 11:03:23;;;;;;;8.87;6.70;;;;;;;21.57;47.04;95535.16;5056395;28;20440;-81
2023/10/07 11:05:53;;;;;;;11.20;7.63;;;;;;;21.62;46.97;95528.25;5075066;28;20442;-81
2023/10/07 11:08:23;;;;;;;11.67;6.77;;;;;;;21.62;47.09;95517.56;5075235;28;20528;-81
2023/10/07 11:10:53;;;;;;;8.67;6.43;;;;;;;21.58;46.07;95516.28;5075235;28;20478;-81
2023/10/07 11:13:20;;;;;;;7.37;6.40;;;;;;;21.66;47.30;95515.38;5074976;28;20446;-80
2023/10/07 11:15:58;;;;;;;12.97;6.90;;;;;;;21.80;47.08;95516.41;5074996;28;20961;-81
2023/10/07 11:18:30;;;;;;;10.77;8.27;;;;;;;21.82;46.14;95511.69;5074855;28;20442;-80
2023/10/07 11:21:01;;;;;;;9.33;6.80;;;;;;;21.90;45.36;95508.94;5075097;28;20934;-81
2023/10/07 11:23:28;;;;;;;8.83;6.77;;;;;;;21.92;46.28;95504.22;5074868;28;21038;-81
2023/10/07 11:25:56;;;;;;;8.37;7.30;;;;;;;22.02;46.84;95494.09;5039610;28;20485;-80
2023/10/07 11:28:23;;;;;;;10.40;7.87;;;;;;;22.04;45.96;95493.94;5074769;28;20958;-81
2023/10/07 11:30:51;;;;;;;10.27;7.30;;;;;;;22.06;46.41;95486.56;5074796;28;20482;-80
2023/10/07 11:33:19;;;;;;;11.80;7.37;;;;;;;21.92;46.23;95480.19;5074861;28;20452;-81
2023/10/07 11:35:59;;;;;;;10.77;7.40;;;;;;;21.85;45.96;95479.25;5074818;28;20470;-81
2023/10/07 11:38:26;;;;;;;10.40;8.17;;;;;;;21.68;46.05;95477.78;5074641;28;20930;-81
2023/10/07 11:40:53;;;;;;;13.13;8.63;;;;;;;21.61;46.12;95473.19;5074583;28;20444;-80
2023/10/07 11:43:20;;;;;;;10.43;7.40;;;;;;;21.74;46.69;95467.22;5074829;28;20448;-80
2023/10/07 11:45:48;;;;;;;13.40;7.87;;;;;;;21.88;46.69;95460.19;5074568;28;20534;-81
2023/10/07 11:48:14;;;;;;;13.73;8.50;;;;;;;21.99;46.19;95458.91;5074850;28;20438;-81
2023/10/07 11:50:41;;;;;;;11.27;8.53;;;;;;;22.01;45.54;95464.91;5074925;28;20425;-82
2023/10/07 11:53:09;;;;;;;9.57;7.97;;;;;;;22.10;46.60;95459.28;5039476;28;20535;-81
2023/10/07 11:55:37;;;;;;;10.20;7.50;;;;;;;22.18;45.86;95459.16;5074259;28;20486;-81
2023/10/07 11:58:07;;;;;;;9.17;7.53;;;;;;;22.26;46.43;95460.88;5074782;28;20445;-81
2023/10/07 12:00:35;;;;;;;10.20;7.67;;;;;;;22.30;45.03;95454.19;5074199;28;20849;-81